Friday, October 31, 2014
06:20 UTC
  |  Log In   |  Register Free
Airport Search:

Enterprise Municipal Airport
(KEDN)

Enterprise Municipal Airport Diagram
No Airport Diagram Available

FAA data valid effective September 18, 2014 - November 13, 2014 (unless otherwise noted).

 
 
 
 
 
 
 
 
 
 
 
 
 
 

Current Aviation Weather for Enterprise Municipal Airport (KEDN)

The most recent METAR observation for KEDN was updated at: 0612
METAR Summary (Translated METAR)
KEDN
310555Z AUTO 36003KT 10SM CLR 08/06 A2999 RMK AO2
KSXS
301556Z AUTO 02010G17KT 10SM CLR 18/04 A3010 RMK AO2 SLP193 T01840040
(4.6 nm NE from KEDN)
KLOR
310553Z AUTO 00000KT 5SM BR CLR 06/04 A2998 RMK AO2 SLP152 T00610044 10139 20061 58005 TSNO $
(8.3 nm NE from KEDN)
TAF
No TAF information found within 50 nm of KLOR
  Airport Weather Conditions for KEDN

 Current Weather at EDN
46° F
Fair
North winds at 3.5 mph
EDN NOAA Radar

Pressure: 29.99 in
Humidity: 87%
Wind: North at 3.5 MPH (3 KT)
Dew Point: 42.8°F
Visibility: 10.00 mi


Airport Weather Forecast for KEDN

Translated METAR and TAF for KLOR
Translated METAR for KLOR (0615 UTC 31 October 2014)
found at http://aviationweather.gov/adds/metars/
 
METAR text: KLOR 310553Z AUTO 00000KT 5SM BR CLR 06/04 A2998 RMK AO2 SLP152 T00610044 10139 20061 58005 TSNO $
Conditions at: KLOR (LOWE AHP/FT. RUC, AL, US) observed 0553 UTC 31 October 2014
Temperature: 6.1°C (43°F)
Dewpoint: 4.4°C (40°F) [RH = 89%]
Pressure (altimeter): 29.98 inches Hg (1015.3 mb)
[Sea-level pressure: 1015.2 mb]
Winds: calm
Visibility: 5 miles (8 km)
Ceiling: at least 12,000 feet AGL
Clouds: sky clear below 12,000 feet AGL
Weather: BR  (mist)
SOME DATA ABOVE MAY BE INACCURATE!!!
"$" is an indication the sensor requires maintenance
Translated TAF for KLOR

There is no translated TAF available for this airport

Find All Airport Services Find A Hotel Find A Rental Car Find A Golf Course Find A Restaurant $100 Hamburger



FBO's on the Field
FBO Company Facility Photos Services Transportation Aviation Fuel Prices: Prices include tax
Catering Weather Repair Courtesy Rental Type 100LL JetA JetA+ MOGAS 8087
 
Enterprise Municipal Airport

This FBO has not yet been rated
FS:Epic
Last Updated: Sep-24
Login to update fuel prices
SS:
Contact Enterprise Municipal AirportMore FBO Information
 
Add another FBO Facility Photos Catering Weather Repair Courtesy Rental Type 100LL JetA JetA+ MOGAS 8087
Services Transportation Aviation Fuel Prices: Prices include tax


model-print
model-print
model-print
model-print